sensor_id;sensor_type;location;lat;lon;timestamp;pressure;altitude;pressure_sealevel;temperature;humidity
77227;BME280;66234;47.642;19.144;2023-11-19T00:01:34;100916.78;;;-0.17;100.00
77227;BME280;66234;47.642;19.144;2023-11-19T00:04:37;100926.19;;;-0.15;100.00
77227;BME280;66234;47.642;19.144;2023-11-19T00:07:43;100919.41;;;-0.17;100.00
77227;BME280;66234;47.642;19.144;2023-11-19T00:10:46;100918.44;;;-0.16;100.00
77227;BME280;66234;47.642;19.144;2023-11-19T00:13:48;100907.81;;;-0.15;100.00
77227;BME280;66234;47.642;19.144;2023-11-19T00:16:51;100916.78;;;-0.17;100.00
77227;BME280;66234;47.642;19.144;2023-11-19T00:19:54;100919.28;;;-0.16;100.00
77227;BME280;66234;47.642;19.144;2023-11-19T00:22:56;100895.97;;;-0.20;100.00
77227;BME280;66234;47.642;19.144;2023-11-19T00:25:58;100912.56;;;-0.20;100.00
77227;BME280;66234;47.642;19.144;2023-11-19T00:29:01;100927.28;;;-0.17;100.00
77227;BME280;66234;47.642;19.144;2023-11-19T00:32:04;100927.97;;;-0.15;100.00
77227;BME280;66234;47.642;19.144;2023-11-19T00:35:08;100916.97;;;-0.09;100.00
77227;BME280;66234;47.642;19.144;2023-11-19T00:38:17;100907.06;;;-0.06;100.00
77227;BME280;66234;47.642;19.144;2023-11-19T00:41:19;100925.22;;;-0.03;100.00
77227;BME280;66234;47.642;19.144;2023-11-19T00:44:23;100915.53;;;-0.02;100.00
77227;BME280;66234;47.642;19.144;2023-11-19T00:47:25;100911.94;;;-0.01;100.00
77227;BME280;66234;47.642;19.144;2023-11-19T00:50:28;100911.94;;;-0.01;100.00
77227;BME280;66234;47.642;19.144;2023-11-19T00:53:32;100909.31;;;-0.01;100.00
77227;BME280;66234;47.642;19.144;2023-11-19T00:56:36;100909.91;;;0.03;100.00
77227;BME280;66234;47.642;19.144;2023-11-19T00:59:42;100904.19;;;-0.03;100.00
77227;BME280;66234;47.642;19.144;2023-11-19T01:02:45;100893.53;;;-0.01;100.00
77227;BME280;66234;47.642;19.144;2023-11-19T01:05:49;100888.75;;;0.04;100.00
77227;BME280;66234;47.642;19.144;2023-11-19T01:08:51;100905.13;;;0.08;100.00
77227;BME280;66234;47.642;19.144;2023-11-19T01:11:55;100911.31;;;0.07;100.00
77227;BME280;66234;47.642;19.144;2023-11-19T01:14:58;100914.78;;;0.07;100.00
77227;BME280;66234;47.642;19.144;2023-11-19T01:18:00;100907.78;;;-0.04;100.00
77227;BME280;66234;47.642;19.144;2023-11-19T01:21:07;100909.69;;;-0.06;100.00
77227;BME280;66234;47.642;19.144;2023-11-19T01:24:11;100906.44;;;0.02;100.00
77227;BME280;66234;47.642;19.144;2023-11-19T01:27:15;100897.34;;;0.06;100.00
77227;BME280;66234;47.642;19.144;2023-11-19T01:30:18;100901.41;;;-0.01;100.00
77227;BME280;66234;47.642;19.144;2023-11-19T01:33:24;100900.56;;;-0.02;100.00
77227;BME280;66234;47.642;19.144;2023-11-19T01:36:27;100901.53;;;-0.03;100.00
77227;BME280;66234;47.642;19.144;2023-11-19T01:39:30;100900.56;;;-0.02;100.00
77227;BME280;66234;47.642;19.144;2023-11-19T01:42:39;100903.69;;;0.03;100.00
77227;BME280;66234;47.642;19.144;2023-11-19T01:45:42;100892.34;;;0.03;100.00
77227;BME280;66234;47.642;19.144;2023-11-19T01:48:45;100896.16;;;-0.01;100.00
77227;BME280;66234;47.642;19.144;2023-11-19T01:51:49;100892.81;;;-0.03;100.00
77227;BME280;66234;47.642;19.144;2023-11-19T01:54:53;100875.63;;;-0.07;100.00
77227;BME280;66234;47.642;19.144;2023-11-19T01:57:59;100872.63;;;-0.03;100.00
77227;BME280;66234;47.642;19.144;2023-11-19T02:01:05;100862.38;;;-0.06;100.00
77227;BME280;66234;47.642;19.144;2023-11-19T02:04:09;100863.34;;;-0.07;100.00
77227;BME280;66234;47.642;19.144;2023-11-19T02:07:12;100864.50;;;0.00;100.00
77227;BME280;66234;47.642;19.144;2023-11-19T02:10:16;100854.63;;;-0.07;100.00
77227;BME280;66234;47.642;19.144;2023-11-19T02:13:21;100846.25;;;-0.12;100.00
77227;BME280;66234;47.642;19.144;2023-11-19T02:16:24;100854.16;;;-0.12;100.00
77227;BME280;66234;47.642;19.144;2023-11-19T02:19:26;100862.16;;;-0.14;100.00
77227;BME280;66234;47.642;19.144;2023-11-19T02:22:29;100857.53;;;-0.21;100.00
77227;BME280;66234;47.642;19.144;2023-11-19T02:25:32;100862.53;;;-0.18;100.00
77227;BME280;66234;47.642;19.144;2023-11-19T02:28:36;100852.13;;;-0.20;100.00
77227;BME280;66234;47.642;19.144;2023-11-19T02:31:39;100843.91;;;-0.26;100.00
77227;BME280;66234;47.642;19.144;2023-11-19T02:34:42;100850.00;;;-0.26;100.00
77227;BME280;66234;47.642;19.144;2023-11-19T02:37:45;100843.59;;;-0.33;100.00
77227;BME280;66234;47.642;19.144;2023-11-19T02:40:48;100829.88;;;-0.36;100.00
77227;BME280;66234;47.642;19.144;2023-11-19T02:43:51;100828.09;;;-0.36;100.00
77227;BME280;66234;47.642;19.144;2023-11-19T02:46:54;100820.63;;;-0.31;100.00
77227;BME280;66234;47.642;19.144;2023-11-19T02:49:56;100830.22;;;-0.30;100.00
77227;BME280;66234;47.642;19.144;2023-11-19T02:53:00;100827.25;;;-0.36;100.00
77227;BME280;66234;47.642;19.144;2023-11-19T02:56:04;100824.72;;;-0.38;100.00
77227;BME280;66234;47.642;19.144;2023-11-19T02:59:40;100818.13;;;-0.32;100.00
77227;BME280;66234;47.642;19.144;2023-11-19T03:02:45;100819.47;;;-0.38;100.00
77227;BME280;66234;47.642;19.144;2023-11-19T03:06:00;100819.22;;;-0.35;100.00
77227;BME280;66234;47.642;19.144;2023-11-19T03:09:07;100811.09;;;-0.32;100.00
77227;BME280;66234;47.642;19.144;2023-11-19T03:12:12;100817.75;;;-0.28;100.00
77227;BME280;66234;47.642;19.144;2023-11-19T03:15:15;100808.94;;;-0.27;100.00
77227;BME280;66234;47.642;19.144;2023-11-19T03:18:18;100805.09;;;-0.23;100.00
77227;BME280;66234;47.642;19.144;2023-11-19T03:21:28;100797.56;;;-0.16;100.00
77227;BME280;66234;47.642;19.144;2023-11-19T03:24:32;100782.63;;;-0.16;100.00
77227;BME280;66234;47.642;19.144;2023-11-19T03:27:35;100787.94;;;-0.06;100.00
77227;BME280;66234;47.642;19.144;2023-11-19T03:30:38;100798.81;;;-0.11;100.00
77227;BME280;66234;47.642;19.144;2023-11-19T03:33:40;100812.31;;;-0.04;100.00
77227;BME280;66234;47.642;19.144;2023-11-19T03:36:44;100800.47;;;0.02;100.00
77227;BME280;66234;47.642;19.144;2023-11-19T03:39:46;100779.44;;;0.02;100.00
77227;BME280;66234;47.642;19.144;2023-11-19T03:42:48;100771.19;;;0.06;100.00
77227;BME280;66234;47.642;19.144;2023-11-19T03:45:51;100766.34;;;0.11;100.00
77227;BME280;66234;47.642;19.144;2023-11-19T03:48:54;100753.66;;;0.16;100.00
77227;BME280;66234;47.642;19.144;2023-11-19T03:51:56;100757.84;;;0.19;100.00
77227;BME280;66234;47.642;19.144;2023-11-19T03:54:59;100748.00;;;0.21;100.00
77227;BME280;66234;47.642;19.144;2023-11-19T03:58:03;100741.41;;;0.26;100.00
77227;BME280;66234;47.642;19.144;2023-11-19T04:01:11;100731.56;;;0.28;100.00
77227;BME280;66234;47.642;19.144;2023-11-19T04:04:14;100737.81;;;0.27;100.00
77227;BME280;66234;47.642;19.144;2023-11-19T04:07:17;100735.75;;;0.31;100.00
77227;BME280;66234;47.642;19.144;2023-11-19T04:10:19;100731.31;;;0.31;100.00
77227;BME280;66234;47.642;19.144;2023-11-19T04:13:23;100714.47;;;0.34;100.00
77227;BME280;66234;47.642;19.144;2023-11-19T04:16:27;100717.63;;;0.28;100.00
77227;BME280;66234;47.642;19.144;2023-11-19T04:19:33;100740.31;;;0.29;100.00
77227;BME280;66234;47.642;19.144;2023-11-19T04:22:35;100730.19;;;0.24;100.00
77227;BME280;66234;47.642;19.144;2023-11-19T04:25:38;100706.66;;;0.23;100.00
77227;BME280;66234;47.642;19.144;2023-11-19T04:28:42;100708.44;;;0.22;100.00
77227;BME280;66234;47.642;19.144;2023-11-19T04:31:44;100710.88;;;0.14;100.00
77227;BME280;66234;47.642;19.144;2023-11-19T04:34:48;100699.69;;;0.12;100.00
77227;BME280;66234;47.642;19.144;2023-11-19T04:37:50;100715.44;;;0.12;100.00
77227;BME280;66234;47.642;19.144;2023-11-19T04:40:53;100727.88;;;0.10;100.00
77227;BME280;66234;47.642;19.144;2023-11-19T04:43:56;100738.66;;;0.07;100.00
77227;BME280;66234;47.642;19.144;2023-11-19T04:46:58;100740.97;;;0.00;100.00
77227;BME280;66234;47.642;19.144;2023-11-19T04:50:01;100748.84;;;0.00;100.00
77227;BME280;66234;47.642;19.144;2023-11-19T04:53:04;100746.66;;;0.06;100.00
77227;BME280;66234;47.642;19.144;2023-11-19T04:56:10;100745.16;;;0.03;100.00
77227;BME280;66234;47.642;19.144;2023-11-19T04:59:13;100733.53;;;0.06;100.00
77227;BME280;66234;47.642;19.144;2023-11-19T05:02:15;100737.28;;;0.13;100.00
77227;BME280;66234;47.642;19.144;2023-11-19T05:05:18;100737.63;;;0.19;100.00
77227;BME280;66234;47.642;19.144;2023-11-19T05:08:21;100735.56;;;0.02;100.00
77227;BME280;66234;47.642;19.144;2023-11-19T05:11:24;100735.91;;;0.09;100.00
77227;BME280;66234;47.642;19.144;2023-11-19T05:14:26;100749.03;;;0.09;100.00
77227;BME280;66234;47.642;19.144;2023-11-19T05:17:28;100760.91;;;0.24;100.00
77227;BME280;66234;47.642;19.144;2023-11-19T05:20:31;100751.53;;;0.31;100.00
77227;BME280;66234;47.642;19.144;2023-11-19T05:23:34;100745.31;;;0.32;100.00
77227;BME280;66234;47.642;19.144;2023-11-19T05:26:37;100740.69;;;0.24;100.00
77227;BME280;66234;47.642;19.144;2023-11-19T05:29:40;100740.91;;;0.32;100.00
77227;BME280;66234;47.642;19.144;2023-11-19T05:32:44;100740.75;;;0.34;100.00
77227;BME280;66234;47.642;19.144;2023-11-19T05:35:46;100734.78;;;0.32;100.00
77227;BME280;66234;47.642;19.144;2023-11-19T05:38:49;100744.47;;;0.31;100.00
77227;BME280;66234;47.642;19.144;2023-11-19T05:41:51;100738.53;;;0.29;100.00
77227;BME280;66234;47.642;19.144;2023-11-19T05:44:54;100740.63;;;0.35;100.00
77227;BME280;66234;47.642;19.144;2023-11-19T05:47:57;100744.06;;;0.36;100.00
77227;BME280;66234;47.642;19.144;2023-11-19T05:50:59;100745.88;;;0.35;100.00
77227;BME280;66234;47.642;19.144;2023-11-19T05:54:02;100737.03;;;0.36;100.00
77227;BME280;66234;47.642;19.144;2023-11-19T05:57:06;100747.28;;;0.39;100.00
77227;BME280;66234;47.642;19.144;2023-11-19T06:00:12;100734.25;;;0.38;100.00
77227;BME280;66234;47.642;19.144;2023-11-19T06:03:15;100738.31;;;0.42;100.00
77227;BME280;66234;47.642;19.144;2023-11-19T06:06:18;100741.91;;;0.41;100.00
77227;BME280;66234;47.642;19.144;2023-11-19T06:09:21;100729.19;;;0.46;100.00
77227;BME280;66234;47.642;19.144;2023-11-19T06:12:25;100712.63;;;0.55;100.00
77227;BME280;66234;47.642;19.144;2023-11-19T06:15:30;100709.84;;;0.56;100.00
77227;BME280;66234;47.642;19.144;2023-11-19T06:18:32;100696.25;;;0.42;100.00
77227;BME280;66234;47.642;19.144;2023-11-19T06:21:36;100698.63;;;0.54;100.00
77227;BME280;66234;47.642;19.144;2023-11-19T06:24:39;100705.00;;;0.52;100.00
77227;BME280;66234;47.642;19.144;2023-11-19T06:27:43;100689.38;;;0.60;100.00
77227;BME280;66234;47.642;19.144;2023-11-19T06:30:45;100697.31;;;0.69;100.00
77227;BME280;66234;47.642;19.144;2023-11-19T06:33:50;100707.31;;;0.75;100.00
77227;BME280;66234;47.642;19.144;2023-11-19T06:36:53;100689.59;;;0.87;100.00
77227;BME280;66234;47.642;19.144;2023-11-19T06:39:56;100686.84;;;0.98;100.00
77227;BME280;66234;47.642;19.144;2023-11-19T06:42:58;100693.53;;;1.02;100.00
77227;BME280;66234;47.642;19.144;2023-11-19T06:46:01;100693.78;;;1.08;100.00
77227;BME280;66234;47.642;19.144;2023-11-19T06:49:04;100692.16;;;1.17;100.00
77227;BME280;66234;47.642;19.144;2023-11-19T06:52:06;100683.44;;;1.26;100.00
77227;BME280;66234;47.642;19.144;2023-11-19T06:55:09;100679.28;;;1.42;100.00
77227;BME280;66234;47.642;19.144;2023-11-19T06:58:12;100692.44;;;1.52;100.00
77227;BME280;66234;47.642;19.144;2023-11-19T07:01:15;100675.81;;;1.70;98.81
77227;BME280;66234;47.642;19.144;2023-11-19T07:04:18;100675.38;;;1.85;98.11
77227;BME280;66234;47.642;19.144;2023-11-19T07:07:20;100686.47;;;1.88;97.64
77227;BME280;66234;47.642;19.144;2023-11-19T07:10:23;100681.75;;;1.92;97.83
77227;BME280;66234;47.642;19.144;2023-11-19T07:13:26;100677.41;;;2.10;97.04
77227;BME280;66234;47.642;19.144;2023-11-19T07:16:30;100680.75;;;2.12;95.73
77227;BME280;66234;47.642;19.144;2023-11-19T07:19:33;100682.78;;;2.27;95.00
77227;BME280;66234;47.642;19.144;2023-11-19T07:22:37;100688.22;;;2.26;94.47
77227;BME280;66234;47.642;19.144;2023-11-19T07:25:41;100698.31;;;2.30;94.83
77227;BME280;66234;47.642;19.144;2023-11-19T07:28:43;100693.72;;;2.32;94.14
77227;BME280;66234;47.642;19.144;2023-11-19T07:31:48;100683.72;;;2.36;93.81
77227;BME280;66234;47.642;19.144;2023-11-19T07:34:51;100689.25;;;2.42;94.61
77227;BME280;66234;47.642;19.144;2023-11-19T07:37:53;100693.28;;;2.37;94.17
77227;BME280;66234;47.642;19.144;2023-11-19T07:40:56;100704.41;;;2.31;94.74
77227;BME280;66234;47.642;19.144;2023-11-19T07:43:59;100703.88;;;2.27;94.68
77227;BME280;66234;47.642;19.144;2023-11-19T07:47:02;100717.09;;;2.27;94.46
77227;BME280;66234;47.642;19.144;2023-11-19T07:50:06;100716.66;;;2.22;95.35
77227;BME280;66234;47.642;19.144;2023-11-19T07:53:08;100700.56;;;2.16;96.50
77227;BME280;66234;47.642;19.144;2023-11-19T07:56:11;100695.56;;;2.22;96.71
77227;BME280;66234;47.642;19.144;2023-11-19T07:59:14;100679.00;;;2.30;96.42
77227;BME280;66234;47.642;19.144;2023-11-19T08:02:16;100658.03;;;2.38;95.36
77227;BME280;66234;47.642;19.144;2023-11-19T08:05:19;100654.81;;;2.44;95.94
77227;BME280;66234;47.642;19.144;2023-11-19T08:08:21;100644.41;;;2.42;95.74
77227;BME280;66234;47.642;19.144;2023-11-19T08:11:24;100631.50;;;2.39;96.03
77227;BME280;66234;47.642;19.144;2023-11-19T08:14:27;100628.53;;;2.52;95.90
77227;BME280;66234;47.642;19.144;2023-11-19T08:17:30;100617.72;;;2.45;96.27
77227;BME280;66234;47.642;19.144;2023-11-19T08:20:33;100611.94;;;2.59;95.70
77227;BME280;66234;47.642;19.144;2023-11-19T08:23:36;100595.06;;;2.70;95.25
77227;BME280;66234;47.642;19.144;2023-11-19T08:26:39;100615.53;;;2.85;93.88
77227;BME280;66234;47.642;19.144;2023-11-19T08:29:42;100599.59;;;2.77;93.79
77227;BME280;66234;47.642;19.144;2023-11-19T08:32:44;100590.72;;;2.78;94.46
77227;BME280;66234;47.642;19.144;2023-11-19T08:35:47;100630.78;;;2.91;93.68
77227;BME280;66234;47.642;19.144;2023-11-19T08:38:49;100622.94;;;2.99;92.89
77227;BME280;66234;47.642;19.144;2023-11-19T08:41:54;100600.03;;;3.00;92.79
77227;BME280;66234;47.642;19.144;2023-11-19T08:44:58;100608.44;;;3.03;92.99
77227;BME280;66234;47.642;19.144;2023-11-19T08:48:00;100618.94;;;3.13;92.10
77227;BME280;66234;47.642;19.144;2023-11-19T08:51:03;100638.34;;;3.04;91.65
77227;BME280;66234;47.642;19.144;2023-11-19T08:54:07;100631.13;;;3.06;91.97
77227;BME280;66234;47.642;19.144;2023-11-19T08:57:09;100608.25;;;2.97;91.55
77227;BME280;66234;47.642;19.144;2023-11-19T09:00:12;100618.72;;;3.06;91.83
77227;BME280;66234;47.642;19.144;2023-11-19T09:03:16;100631.94;;;3.24;91.28
77227;BME280;66234;47.642;19.144;2023-11-19T09:06:19;100626.72;;;3.14;90.75
77227;BME280;66234;47.642;19.144;2023-11-19T09:09:22;100635.03;;;3.19;90.36
77227;BME280;66234;47.642;19.144;2023-11-19T09:12:24;100625.00;;;3.23;90.43
77227;BME280;66234;47.642;19.144;2023-11-19T09:15:27;100626.50;;;3.25;91.09
77227;BME280;66234;47.642;19.144;2023-11-19T09:18:30;100633.09;;;3.21;91.36
77227;BME280;66234;47.642;19.144;2023-11-19T09:21:34;100637.38;;;3.22;90.42
77227;BME280;66234;47.642;19.144;2023-11-19T09:24:39;100631.09;;;3.23;90.34
77227;BME280;66234;47.642;19.144;2023-11-19T09:27:45;100625.16;;;3.21;90.81
77227;BME280;66234;47.642;19.144;2023-11-19T09:30:47;100623.41;;;3.30;90.88
77227;BME280;66234;47.642;19.144;2023-11-19T09:33:50;100611.19;;;3.29;90.96
77227;BME280;66234;47.642;19.144;2023-11-19T09:36:53;100621.38;;;3.42;90.02
77227;BME280;66234;47.642;19.144;2023-11-19T09:39:55;100617.34;;;3.55;89.94
77227;BME280;66234;47.642;19.144;2023-11-19T09:42:58;100605.16;;;3.62;89.67
77227;BME280;66234;47.642;19.144;2023-11-19T09:46:05;100608.56;;;3.55;89.31
77227;BME280;66234;47.642;19.144;2023-11-19T09:49:10;100592.16;;;3.43;90.13
77227;BME280;66234;47.642;19.144;2023-11-19T09:52:13;100585.94;;;3.52;90.56
77227;BME280;66234;47.642;19.144;2023-11-19T09:55:16;100584.06;;;3.45;90.75
77227;BME280;66234;47.642;19.144;2023-11-19T09:58:19;100577.09;;;3.43;90.94
77227;BME280;66234;47.642;19.144;2023-11-19T10:01:21;100566.19;;;3.38;90.95
77227;BME280;66234;47.642;19.144;2023-11-19T10:04:34;100554.91;;;3.54;90.89
77227;BME280;66234;47.642;19.144;2023-11-19T10:07:38;100550.47;;;3.63;89.97
77227;BME280;66234;47.642;19.144;2023-11-19T10:10:41;100541.25;;;3.92;88.91
77227;BME280;66234;47.642;19.144;2023-11-19T10:13:43;100542.25;;;3.91;88.38
77227;BME280;66234;47.642;19.144;2023-11-19T10:16:47;100537.09;;;3.90;88.15
77227;BME280;66234;47.642;19.144;2023-11-19T10:19:49;100545.69;;;3.92;87.54
77227;BME280;66234;47.642;19.144;2023-11-19T10:22:55;100551.19;;;3.98;86.75
77227;BME280;66234;47.642;19.144;2023-11-19T10:26:04;100551.72;;;4.02;86.46
77227;BME280;66234;47.642;19.144;2023-11-19T10:29:13;100561.25;;;3.95;86.69
77227;BME280;66234;47.642;19.144;2023-11-19T10:32:17;100558.66;;;4.03;86.82
77227;BME280;66234;47.642;19.144;2023-11-19T10:35:28;100554.09;;;4.13;86.67
77227;BME280;66234;47.642;19.144;2023-11-19T10:38:31;100557.38;;;4.07;86.56
77227;BME280;66234;47.642;19.144;2023-11-19T10:41:33;100556.16;;;4.01;87.13
77227;BME280;66234;47.642;19.144;2023-11-19T10:44:36;100540.75;;;3.97;87.07
77227;BME280;66234;47.642;19.144;2023-11-19T10:47:40;100529.88;;;4.00;86.95
77227;BME280;66234;47.642;19.144;2023-11-19T10:50:46;100530.44;;;4.11;87.06
77227;BME280;66234;47.642;19.144;2023-11-19T10:53:53;100514.34;;;4.05;86.97
77227;BME280;66234;47.642;19.144;2023-11-19T10:57:01;100512.06;;;4.10;86.94
77227;BME280;66234;47.642;19.144;2023-11-19T11:00:04;100502.41;;;4.01;87.41
77227;BME280;66234;47.642;19.144;2023-11-19T11:03:19;100494.03;;;4.05;87.75
77227;BME280;66234;47.642;19.144;2023-11-19T11:06:23;100486.69;;;3.99;87.40
77227;BME280;66234;47.642;19.144;2023-11-19T11:09:27;100475.44;;;3.89;88.14
77227;BME280;66234;47.642;19.144;2023-11-19T11:12:35;100480.97;;;4.12;87.60
77227;BME280;66234;47.642;19.144;2023-11-19T11:15:39;100460.47;;;4.14;86.42
77227;BME280;66234;47.642;19.144;2023-11-19T11:18:46;100475.34;;;4.07;87.20
77227;BME280;66234;47.642;19.144;2023-11-19T11:21:53;100469.25;;;4.14;87.19
77227;BME280;66234;47.642;19.144;2023-11-19T11:28:32;100468.63;;;4.36;86.20
77227;BME280;66234;47.642;19.144;2023-11-19T11:31:48;100480.06;;;4.37;85.81
77227;BME280;66234;47.642;19.144;2023-11-19T11:38:53;100453.94;;;4.50;85.31
77227;BME280;66234;47.642;19.144;2023-11-19T11:45:37;100444.47;;;4.39;85.60
77227;BME280;66234;47.642;19.144;2023-11-19T11:48:45;100435.41;;;4.50;85.38
77227;BME280;66234;47.642;19.144;2023-11-19T11:55:08;100425.47;;;4.60;83.94
77227;BME280;66234;47.642;19.144;2023-11-19T11:58:12;100417.38;;;4.61;83.64
77227;BME280;66234;47.642;19.144;2023-11-19T12:01:16;100403.31;;;4.77;82.76
77227;BME280;66234;47.642;19.144;2023-11-19T12:04:26;100400.44;;;5.19;82.29
77227;BME280;66234;47.642;19.144;2023-11-19T12:07:29;100390.50;;;5.21;81.03
77227;BME280;66234;47.642;19.144;2023-11-19T12:10:37;100385.16;;;5.37;80.17
77227;BME280;66234;47.642;19.144;2023-11-19T12:13:55;100386.88;;;5.14;79.66
77227;BME280;66234;47.642;19.144;2023-11-19T12:20:35;100382.41;;;5.14;80.76
77227;BME280;66234;47.642;19.144;2023-11-19T12:23:46;100373.75;;;5.20;80.82
77227;BME280;66234;47.642;19.144;2023-11-19T12:26:52;100374.81;;;4.95;81.19
77227;BME280;66234;47.642;19.144;2023-11-19T12:29:56;100369.84;;;4.92;81.94
77227;BME280;66234;47.642;19.144;2023-11-19T12:32:59;100356.13;;;4.72;81.62
77227;BME280;66234;47.642;19.144;2023-11-19T12:36:02;100361.75;;;4.85;83.13
77227;BME280;66234;47.642;19.144;2023-11-19T12:39:07;100365.88;;;4.88;82.56
77227;BME280;66234;47.642;19.144;2023-11-19T12:42:10;100344.19;;;4.84;82.59
77227;BME280;66234;47.642;19.144;2023-11-19T12:45:14;100336.78;;;4.64;83.72
77227;BME280;66234;47.642;19.144;2023-11-19T12:48:18;100327.34;;;4.53;84.88
77227;BME280;66234;47.642;19.144;2023-11-19T12:51:21;100320.06;;;4.39;85.83
77227;BME280;66234;47.642;19.144;2023-11-19T12:54:35;100318.09;;;4.57;85.74
77227;BME280;66234;47.642;19.144;2023-11-19T12:57:40;100318.59;;;4.53;85.78
77227;BME280;66234;47.642;19.144;2023-11-19T13:00:43;100312.13;;;4.55;86.08
77227;BME280;66234;47.642;19.144;2023-11-19T13:03:46;100316.44;;;4.48;85.48
77227;BME280;66234;47.642;19.144;2023-11-19T13:06:51;100313.63;;;4.50;85.54
77227;BME280;66234;47.642;19.144;2023-11-19T13:10:03;100318.75;;;4.59;85.86
77227;BME280;66234;47.642;19.144;2023-11-19T13:13:07;100299.72;;;4.48;87.04
77227;BME280;66234;47.642;19.144;2023-11-19T13:16:12;100302.88;;;4.51;87.70
77227;BME280;66234;47.642;19.144;2023-11-19T13:19:15;100306.66;;;4.57;87.61
77227;BME280;66234;47.642;19.144;2023-11-19T13:22:21;100304.50;;;4.68;87.99
77227;BME280;66234;47.642;19.144;2023-11-19T13:25:24;100315.22;;;4.83;87.11
77227;BME280;66234;47.642;19.144;2023-11-19T13:28:28;100302.66;;;4.85;86.47
77227;BME280;66234;47.642;19.144;2023-11-19T13:31:31;100302.66;;;4.85;88.12
77227;BME280;66234;47.642;19.144;2023-11-19T13:34:33;100303.66;;;4.76;88.04
77227;BME280;66234;47.642;19.144;2023-11-19T13:37:36;100301.50;;;4.79;87.81
77227;BME280;66234;47.642;19.144;2023-11-19T13:40:38;100307.00;;;4.70;88.28
77227;BME280;66234;47.642;19.144;2023-11-19T13:43:41;100309.75;;;4.76;88.52
77227;BME280;66234;47.642;19.144;2023-11-19T13:46:45;100297.19;;;4.70;88.41
77227;BME280;66234;47.642;19.144;2023-11-19T13:49:48;100292.91;;;4.77;88.85
77227;BME280;66234;47.642;19.144;2023-11-19T13:52:51;100307.97;;;4.69;87.86
77227;BME280;66234;47.642;19.144;2023-11-19T13:55:53;100298.88;;;4.71;88.12
77227;BME280;66234;47.642;19.144;2023-11-19T13:58:56;100283.66;;;4.65;88.94
77227;BME280;66234;47.642;19.144;2023-11-19T14:01:58;100280.97;;;4.73;88.77
77227;BME280;66234;47.642;19.144;2023-11-19T14:05:01;100275.31;;;4.84;88.75
77227;BME280;66234;47.642;19.144;2023-11-19T14:08:05;100265.25;;;4.72;88.00
77227;BME280;66234;47.642;19.144;2023-11-19T14:11:26;100296.53;;;4.76;89.19
77227;BME280;66234;47.642;19.144;2023-11-19T14:14:29;100297.53;;;4.75;88.03
77227;BME280;66234;47.642;19.144;2023-11-19T14:17:32;100292.41;;;4.74;88.41
77227;BME280;66234;47.642;19.144;2023-11-19T14:20:35;100280.78;;;4.83;87.32
77227;BME280;66234;47.642;19.144;2023-11-19T14:23:38;100291.72;;;4.80;87.67
77227;BME280;66234;47.642;19.144;2023-11-19T14:26:41;100287.72;;;4.92;87.08
77227;BME280;66234;47.642;19.144;2023-11-19T14:29:44;100281.94;;;4.88;87.47
77227;BME280;66234;47.642;19.144;2023-11-19T14:32:49;100268.56;;;4.74;88.33
77227;BME280;66234;47.642;19.144;2023-11-19T14:35:52;100276.84;;;4.79;88.80
77227;BME280;66234;47.642;19.144;2023-11-19T14:38:54;100278.81;;;4.77;89.22
77227;BME280;66234;47.642;19.144;2023-11-19T14:41:57;100273.25;;;4.64;89.60
77227;BME280;66234;47.642;19.144;2023-11-19T14:45:03;100283.97;;;4.70;90.12
77227;BME280;66234;47.642;19.144;2023-11-19T14:48:06;100277.03;;;4.69;91.94
77227;BME280;66234;47.642;19.144;2023-11-19T14:51:08;100288.28;;;4.71;91.82
77227;BME280;66234;47.642;19.144;2023-11-19T14:54:11;100281.31;;;4.70;91.84
77227;BME280;66234;47.642;19.144;2023-11-19T14:57:14;100290.41;;;4.76;91.57
77227;BME280;66234;47.642;19.144;2023-11-19T15:00:16;100285.63;;;4.71;92.00
77227;BME280;66234;47.642;19.144;2023-11-19T15:03:19;100283.16;;;4.70;91.82
77227;BME280;66234;47.642;19.144;2023-11-19T15:06:25;100282.16;;;4.71;92.29
77227;BME280;66234;47.642;19.144;2023-11-19T15:09:32;100286.44;;;4.72;92.51
77227;BME280;66234;47.642;19.144;2023-11-19T15:12:36;100277.34;;;4.74;93.34
77227;BME280;66234;47.642;19.144;2023-11-19T15:15:42;100274.88;;;4.73;93.18
77227;BME280;66234;47.642;19.144;2023-11-19T15:18:44;100282.81;;;4.73;93.79
77227;BME280;66234;47.642;19.144;2023-11-19T15:21:47;100288.91;;;4.81;93.37
77227;BME280;66234;47.642;19.144;2023-11-19T15:24:50;100283.16;;;4.78;93.15
77227;BME280;66234;47.642;19.144;2023-11-19T15:27:52;100277.19;;;4.76;93.09
77227;BME280;66234;47.642;19.144;2023-11-19T15:30:55;100291.09;;;4.78;93.10
77227;BME280;66234;47.642;19.144;2023-11-19T15:33:58;100274.19;;;4.79;93.68
77227;BME280;66234;47.642;19.144;2023-11-19T15:37:01;100282.31;;;4.77;93.59
77227;BME280;66234;47.642;19.144;2023-11-19T15:40:04;100272.66;;;4.84;93.73
77227;BME280;66234;47.642;19.144;2023-11-19T15:43:10;100263.91;;;4.84;93.64
77227;BME280;66234;47.642;19.144;2023-11-19T15:46:12;100251.19;;;4.79;93.58
77227;BME280;66234;47.642;19.144;2023-11-19T15:49:15;100256.66;;;4.70;94.06
77227;BME280;66234;47.642;19.144;2023-11-19T15:52:18;100261.97;;;4.70;93.91
77227;BME280;66234;47.642;19.144;2023-11-19T15:55:21;100258.97;;;4.73;93.57
77227;BME280;66234;47.642;19.144;2023-11-19T15:58:24;100265.25;;;4.72;94.06
77227;BME280;66234;47.642;19.144;2023-11-19T16:01:27;100255.50;;;4.64;94.72
77227;BME280;66234;47.642;19.144;2023-11-19T16:04:31;100263.09;;;4.67;94.81
77227;BME280;66234;47.642;19.144;2023-11-19T16:07:34;100256.00;;;4.68;94.55
77227;BME280;66234;47.642;19.144;2023-11-19T16:10:38;100266.75;;;4.74;95.17